Time;durP1;ratioP1;P1;durP2;ratioP2;P2;SDS_P1;SDS_P2;PMS_P1;PMS_P2;Temp;Humidity;BMP_temperature;BMP_pressure;BME280_temperature;BME280_humidity;BME280_pressure;Samples;Min_cycle;Max_cycle;Signal;HPM_P1;HPM_P2
2022/01/17 00:01:14;;;;;;;23.52;15.18;;;;;;;2.83;100.00;99729.22;5096865;28;20064;-76
2022/01/17 00:03:59;;;;;;;25.80;16.08;;;;;;;2.78;100.00;99716.28;5081745;28;20337;-77
2022/01/17 00:06:44;;;;;;;24.55;15.70;;;;;;;2.78;100.00;99721.47;5081708;28;20043;-76
2022/01/17 00:09:29;;;;;;;28.67;18.00;;;;;;;2.80;100.00;99714.59;5096597;28;20062;-77
2022/01/17 00:12:13;;;;;;;29.17;17.55;;;;;;;2.83;100.00;99696.50;5067289;28;20048;-76
2022/01/17 00:14:58;;;;;;;28.23;16.33;;;;;;;2.88;100.00;99689.59;5067501;28;20090;-77
2022/01/17 00:17:45;;;;;;;25.05;16.48;;;;;;;2.88;100.00;99687.00;5081600;28;20046;-77
2022/01/17 00:20:30;;;;;;;24.30;16.10;;;;;;;2.87;100.00;99687.03;5081190;28;20420;-77
2022/01/17 00:23:16;;;;;;;25.67;16.05;;;;;;;2.88;100.00;99678.38;5081357;28;20043;-77
2022/01/17 00:26:00;;;;;;;25.13;16.45;;;;;;;2.93;100.00;99676.69;5096524;28;20348;-77
2022/01/17 00:28:45;;;;;;;27.02;16.42;;;;;;;2.92;100.00;99674.94;5096320;28;20044;-77
2022/01/17 00:31:29;;;;;;;30.90;18.48;;;;;;;2.94;100.00;99675.81;5081243;28;20098;-77
2022/01/17 00:34:14;;;;;;;25.48;16.08;;;;;;;2.88;100.00;99650.78;5081222;28;20040;-77
2022/01/17 00:36:58;;;;;;;29.15;17.60;;;;;;;2.98;100.00;99657.72;5081251;28;20047;-77
2022/01/17 00:39:43;;;;;;;30.45;17.33;;;;;;;2.95;100.00;99651.66;5081285;28;20496;-77
2022/01/17 00:42:27;;;;;;;30.95;18.77;;;;;;;2.97;100.00;99645.66;5096087;28;20055;-77
2022/01/17 00:45:13;;;;;;;26.25;16.90;;;;;;;3.01;100.00;99641.34;5097892;28;20051;-77
2022/01/17 00:48:00;;;;;;;30.23;18.90;;;;;;;2.96;100.00;99643.94;5096040;28;20340;-76
2022/01/17 00:50:47;;;;;;;31.85;19.75;;;;;;;2.99;100.00;99640.47;5081250;28;20032;-77
2022/01/17 00:53:31;;;;;;;31.23;19.83;;;;;;;3.10;100.00;99637.94;5095747;28;20048;-77
2022/01/17 00:56:19;;;;;;;32.78;18.60;;;;;;;3.02;100.00;99627.53;5081030;28;20087;-76
2022/01/17 00:59:04;;;;;;;27.17;18.27;;;;;;;2.98;100.00;99623.22;5095940;28;20040;-77
2022/01/17 01:01:48;;;;;;;27.38;17.80;;;;;;;3.07;100.00;99635.34;5080993;28;20051;-77
2022/01/17 01:04:32;;;;;;;27.63;18.55;;;;;;;3.07;100.00;99631.00;5095938;28;20055;-77
2022/01/17 01:07:16;;;;;;;29.33;17.77;;;;;;;3.17;100.00;99622.41;5080914;28;20379;-76
2022/01/17 01:10:06;;;;;;;25.27;17.77;;;;;;;3.12;100.00;99625.84;5081036;28;20036;-77
2022/01/17 01:12:51;;;;;;;28.15;16.98;;;;;;;3.04;100.00;99594.78;5095754;28;20124;-77
2022/01/17 01:21:44;;;;;;;27.55;17.75;;;;;;;3.17;100.00;99595.66;5095694;28;20344;-77
2022/01/17 01:27:46;;;;;;;27.70;18.52;;;;;;;3.07;100.00;99562.88;5080831;28;20036;-77
2022/01/17 01:30:32;;;;;;;27.63;17.88;;;;;;;3.15;100.00;99579.25;5095648;28;20032;-77
2022/01/17 01:33:24;;;;;;;27.35;17.40;;;;;;;3.11;100.00;99577.53;5098714;28;20036;-77
2022/01/17 01:36:17;;;;;;;29.13;18.67;;;;;;;3.15;100.00;99572.38;5084399;28;20067;-77
2022/01/17 01:39:05;;;;;;;32.20;18.63;;;;;;;3.11;100.00;99593.91;5099526;28;20051;-77
2022/01/17 01:41:51;;;;;;;27.75;17.27;;;;;;;3.15;100.00;99582.75;5070394;28;20048;-77
2022/01/17 01:44:37;;;;;;;27.00;17.88;;;;;;;3.13;100.00;99573.22;5099332;28;20040;-76
2022/01/17 01:47:27;;;;;;;35.15;20.33;;;;;;;3.18;100.00;99580.13;5099334;28;20059;-77
2022/01/17 01:50:13;;;;;;;29.25;18.73;;;;;;;3.17;100.00;99562.88;5112836;28;20040;-77
2022/01/17 01:52:57;;;;;;;26.55;18.13;;;;;;;3.11;100.00;99570.63;5083977;28;20058;-77
2022/01/17 01:55:41;;;;;;;26.45;17.17;;;;;;;3.11;100.00;99562.88;5070254;28;20036;-77
2022/01/17 01:58:27;;;;;;;25.27;17.33;;;;;;;3.22;100.00;99566.34;5084155;28;20044;-77
2022/01/17 02:01:12;;;;;;;24.98;17.17;;;;;;;3.15;100.00;99546.50;5084426;28;20127;-77
2022/01/17 02:03:57;;;;;;;23.42;15.43;;;;;;;3.17;100.00;99543.91;5069750;28;20044;-76
2022/01/17 02:06:42;;;;;;;23.67;15.23;;;;;;;3.25;100.00;99540.47;5098276;28;20048;-77
2022/01/17 02:09:27;;;;;;;22.52;14.32;;;;;;;3.27;100.00;99548.22;5098809;28;20036;-77
2022/01/17 02:12:13;;;;;;;24.15;16.08;;;;;;;3.21;100.00;99538.72;5098875;28;20364;-77
2022/01/17 02:14:57;;;;;;;21.70;14.73;;;;;;;3.31;100.00;99533.53;5083738;28;20044;-77
2022/01/17 02:17:52;;;;;;;19.33;14.23;;;;;;;3.33;100.00;99530.09;5069878;28;20039;-77
2022/01/17 02:20:46;;;;;;;27.98;14.80;;;;;;;3.20;100.00;99523.19;5069711;28;20040;-77
2022/01/17 02:23:30;;;;;;;21.88;14.60;;;;;;;3.42;100.00;99518.88;5069588;28;20047;-77
2022/01/17 02:26:16;;;;;;;19.73;14.45;;;;;;;3.35;100.00;99512.84;5069403;28;20044;-77
2022/01/17 02:29:01;;;;;;;21.13;13.38;;;;;;;3.34;100.00;99505.91;5083695;28;20047;-77
2022/01/17 02:31:47;;;;;;;21.48;13.85;;;;;;;3.38;100.00;99504.19;5083467;28;20036;-77
2022/01/17 02:34:32;;;;;;;18.25;13.07;;;;;;;3.41;100.00;99499.91;5083507;28;20044;-77
2022/01/17 02:37:18;;;;;;;18.23;12.48;;;;;;;3.45;100.00;99493.00;5083461;28;20119;-77
2022/01/17 02:40:03;;;;;;;19.48;13.27;;;;;;;3.55;100.00;99497.28;5069195;28;20043;-77
2022/01/17 02:42:57;;;;;;;18.52;12.30;;;;;;;3.51;100.00;99506.78;5068964;28;20048;-77
2022/01/17 02:48:39;;;;;;;20.42;12.35;;;;;;;3.53;100.00;99483.47;5098124;28;20059;-77
2022/01/17 02:51:24;;;;;;;18.10;13.35;;;;;;;3.70;100.00;99473.06;5082994;28;20100;-77
2022/01/17 02:54:08;;;;;;;18.25;12.70;;;;;;;3.59;100.00;99470.50;5076935;28;20041;-78
2022/01/17 02:56:53;;;;;;;18.83;11.45;;;;;;;3.61;100.00;99473.09;5077040;28;20044;-77
2022/01/17 02:59:37;;;;;;;19.00;12.27;;;;;;;3.65;100.00;99473.09;5077166;28;20033;-77
2022/01/17 03:02:21;;;;;;;16.80;10.75;;;;;;;3.68;100.00;99459.28;5076922;28;20048;-77
2022/01/17 03:05:09;;;;;;;19.42;12.05;;;;;;;3.60;100.00;99461.00;5076970;28;20047;-77
2022/01/17 03:07:53;;;;;;;16.67;12.18;;;;;;;3.54;100.00;99463.59;5076870;28;20472;-77
2022/01/17 03:10:40;;;;;;;15.15;10.63;;;;;;;3.68;100.00;99461.88;5062932;28;20051;-77
2022/01/17 03:13:32;;;;;;;15.35;10.27;;;;;;;3.69;100.00;99455.81;5062228;28;20360;-77
2022/01/17 03:16:21;;;;;;;15.40;10.45;;;;;;;3.69;100.00;99466.16;5077375;28;20048;-77
2022/01/17 03:19:05;;;;;;;14.82;10.93;;;;;;;3.78;100.00;99455.78;5076614;28;20040;-77
2022/01/17 03:21:50;;;;;;;14.23;9.85;;;;;;;3.67;100.00;99449.75;5077295;28;20052;-77
2022/01/17 03:24:34;;;;;;;15.48;9.68;;;;;;;3.75;100.00;99442.84;5077141;28;20056;-77
2022/01/17 03:27:19;;;;;;;13.13;9.65;;;;;;;3.79;100.00;99454.06;5077144;28;20321;-76
2022/01/17 03:30:05;;;;;;;15.00;10.15;;;;;;;3.72;100.00;99441.13;5077130;28;20098;-77
2022/01/17 03:32:50;;;;;;;14.13;10.00;;;;;;;3.64;100.00;99426.44;5077074;28;20122;-77
2022/01/17 03:35:38;;;;;;;14.70;9.35;;;;;;;3.79;100.00;99441.09;5076480;28;20433;-77
2022/01/17 03:38:26;;;;;;;14.52;10.80;;;;;;;3.83;100.00;99448.84;5076139;28;20040;-77
2022/01/17 03:41:13;;;;;;;13.90;10.55;;;;;;;3.79;100.00;99423.81;5076111;28;20041;-77
2022/01/17 03:43:57;;;;;;;15.32;9.98;;;;;;;3.87;100.00;99434.16;5076111;28;20036;-77
2022/01/17 03:46:42;;;;;;;16.67;11.25;;;;;;;3.84;100.00;99436.78;5076763;28;20036;-77
2022/01/17 03:49:26;;;;;;;11.88;8.48;;;;;;;3.99;100.00;99423.72;5076721;28;20116;-77
2022/01/17 03:52:11;;;;;;;11.88;8.38;;;;;;;3.88;100.00;99413.41;5064451;28;20051;-78
2022/01/17 03:54:55;;;;;;;12.55;8.70;;;;;;;3.97;100.00;99415.13;5081280;28;20040;-77
2022/01/17 03:57:43;;;;;;;13.18;7.65;;;;;;;3.94;100.00;99404.78;5096952;28;20089;-77
2022/01/17 04:00:31;;;;;;;12.82;8.30;;;;;;;3.96;100.00;99418.56;5081695;28;20093;-77
2022/01/17 04:03:17;;;;;;;12.27;8.18;;;;;;;3.98;100.00;99401.28;5067651;28;20100;-77
2022/01/17 04:06:02;;;;;;;12.80;7.88;;;;;;;3.97;100.00;99423.75;5081786;28;20069;-77
2022/01/17 04:08:47;;;;;;;12.05;8.80;;;;;;;4.13;100.00;99410.72;5081752;28;20044;-78
2022/01/17 04:11:31;;;;;;;16.20;9.43;;;;;;;4.06;100.00;99425.41;5096486;28;20435;-77
2022/01/17 04:14:17;;;;;;;12.73;7.47;;;;;;;4.01;100.00;99422.00;5081569;28;20149;-76
2022/01/17 04:17:03;;;;;;;13.85;9.10;;;;;;;4.09;100.00;99412.44;5096665;28;20040;-77
2022/01/17 04:19:52;;;;;;;14.70;8.60;;;;;;;4.07;100.00;99403.84;5081472;28;20047;-77
2022/01/17 04:22:42;;;;;;;16.35;8.82;;;;;;;4.09;100.00;99401.22;5096441;28;20357;-77
2022/01/17 04:25:30;;;;;;;19.08;9.27;;;;;;;4.06;100.00;99383.94;5081512;28;20042;-77
2022/01/17 04:28:14;;;;;;;16.00;10.35;;;;;;;4.26;100.00;99398.53;5081327;28;20063;-77
2022/01/17 04:30:59;;;;;;;17.17;9.93;;;;;;;4.21;100.00;99401.16;5081361;28;20428;-77
2022/01/17 04:33:43;;;;;;;16.70;10.25;;;;;;;4.23;100.00;99376.09;5081377;28;20097;-77
2022/01/17 04:36:28;;;;;;;17.65;9.48;;;;;;;4.21;100.00;99364.88;5081207;28;20047;-77
2022/01/17 04:39:16;;;;;;;19.27;9.60;;;;;;;4.19;100.00;99358.81;5096152;28;20119;-77
2022/01/17 04:42:09;;;;;;;13.88;8.63;;;;;;;4.25;100.00;99358.78;5096142;28;20036;-77
2022/01/17 04:45:07;;;;;;;17.42;10.95;;;;;;;4.20;100.00;99355.38;5096250;28;20048;-77
2022/01/17 04:47:52;;;;;;;15.00;9.20;;;;;;;4.16;100.00;99341.59;5081180;28;20097;-77
2022/01/17 04:50:37;;;;;;;19.35;9.77;;;;;;;4.35;100.00;99344.03;5081190;28;20036;-77
2022/01/17 04:53:22;;;;;;;18.98;10.95;;;;;;;4.29;100.00;99341.47;5095645;28;20063;-77
2022/01/17 04:56:06;;;;;;;16.50;9.25;;;;;;;4.43;100.00;99350.88;5081122;28;20040;-77
2022/01/17 04:58:50;;;;;;;17.80;10.65;;;;;;;4.27;100.00;99363.97;5080941;28;20447;-77
2022/01/17 05:01:35;;;;;;;15.95;10.60;;;;;;;4.11;100.00;99352.84;5081012;28;20044;-77
2022/01/17 05:04:19;;;;;;;13.63;9.30;;;;;;;4.16;100.00;99351.94;5081080;28;20115;-77
2022/01/17 05:07:05;;;;;;;17.65;11.15;;;;;;;4.19;100.00;99364.00;5084052;28;20044;-77
2022/01/17 05:09:49;;;;;;;19.55;12.43;;;;;;;4.11;100.00;99355.44;5100142;28;20041;-78
2022/01/17 05:12:34;;;;;;;17.23;10.50;;;;;;;4.12;100.00;99342.44;5084858;28;20051;-77
2022/01/17 05:15:35;;;;;;;14.73;10.35;;;;;;;4.10;100.00;99338.16;5099899;28;20036;-77
2022/01/17 05:21:16;;;;;;;27.60;14.82;;;;;;;4.17;100.00;99311.34;5099943;28;20055;-77
2022/01/17 05:24:00;;;;;;;23.60;12.18;;;;;;;4.23;100.00;99321.66;5070817;28;20044;-77
2022/01/17 05:26:44;;;;;;;23.55;12.52;;;;;;;4.20;100.00;99321.69;5084749;28;20417;-77
2022/01/17 05:29:29;;;;;;;26.90;12.55;;;;;;;4.25;100.00;99343.22;5099713;28;20071;-77
2022/01/17 05:32:13;;;;;;;44.85;19.77;;;;;;;4.13;100.00;99344.19;5098796;28;20051;-77
2022/01/17 05:34:58;;;;;;;28.15;12.60;;;;;;;4.16;100.00;99340.69;5099653;28;20044;-78
2022/01/17 05:37:43;;;;;;;21.98;12.45;;;;;;;4.11;100.00;99334.69;5070676;28;20040;-77
2022/01/17 05:40:28;;;;;;;32.65;14.07;;;;;;;4.01;100.00;99323.53;5084480;28;20040;-77
2022/01/17 05:43:13;;;;;;;25.05;12.75;;;;;;;4.04;100.00;99335.63;5070448;28;20422;-77
2022/01/17 05:45:57;;;;;;;40.90;16.35;;;;;;;3.96;100.00;99328.75;5084353;28;20371;-78
2022/01/17 05:48:42;;;;;;;28.27;13.82;;;;;;;3.96;100.00;99327.84;5084279;28;20455;-77
2022/01/17 05:51:26;;;;;;;23.05;11.23;;;;;;;3.86;100.00;99315.84;5084021;28;20044;-79
2022/01/17 05:54:11;;;;;;;42.13;16.17;;;;;;;3.91;100.00;99311.50;5112642;28;20466;-79
2022/01/17 05:56:56;;;;;;;19.42;10.27;;;;;;;3.92;100.00;99324.44;5084332;28;20111;-81
2022/01/17 05:59:40;;;;;;;28.15;13.50;;;;;;;3.86;100.00;99308.91;5099144;28;20395;-81
2022/01/17 06:02:24;;;;;;;29.42;13.68;;;;;;;3.93;100.00;99296.78;5084113;28;20119;-81
2022/01/17 06:05:09;;;;;;;24.50;12.00;;;;;;;3.89;100.00;99283.00;5084001;28;20040;-81
2022/01/17 06:07:53;;;;;;;58.30;18.27;;;;;;;3.72;100.00;99277.91;5083908;28;20052;-80
2022/01/17 06:10:38;;;;;;;22.17;10.43;;;;;;;3.71;100.00;99270.16;5083991;28;20048;-81
2022/01/17 06:13:22;;;;;;;20.50;10.88;;;;;;;3.79;100.00;99264.94;5112525;28;20356;-82
2022/01/17 06:16:07;;;;;;;41.63;16.63;;;;;;;3.81;100.00;99277.00;5112486;28;20051;-81
2022/01/17 06:18:51;;;;;;;39.92;14.02;;;;;;;3.78;100.00;99273.59;5098192;28;20040;-81
2022/01/17 06:21:35;;;;;;;26.83;12.38;;;;;;;3.84;100.00;99294.28;5098719;28;20051;-82
2022/01/17 06:24:19;;;;;;;38.78;15.77;;;;;;;3.85;100.00;99249.34;5086252;28;20078;-82
2022/01/17 06:27:04;;;;;;;23.02;9.38;;;;;;;3.98;100.00;99240.63;5083732;28;20044;-81
2022/01/17 06:29:48;;;;;;;33.22;13.57;;;;;;;3.93;100.00;99222.53;5083674;28;20206;-81
2022/01/17 06:32:34;;;;;;;21.45;9.23;;;;;;;3.85;100.00;99223.44;5098370;28;20090;-80
2022/01/17 06:35:19;;;;;;;22.00;10.57;;;;;;;3.88;100.00;99207.88;5098447;28;20040;-81
2022/01/17 06:38:04;;;;;;;28.67;13.20;;;;;;;3.81;100.00;99193.25;5083547;28;20051;-80
2022/01/17 06:40:48;;;;;;;34.63;20.20;;;;;;;3.82;100.00;99188.06;5069462;28;20048;-79
2022/01/17 06:43:33;;;;;;;22.02;11.90;;;;;;;3.87;100.00;99193.22;5083337;28;20051;-80
2022/01/17 06:46:17;;;;;;;58.60;27.95;;;;;;;3.89;100.00;99170.72;5083308;28;20036;-80
2022/01/17 06:49:02;;;;;;;15.25;7.93;;;;;;;3.87;100.00;99138.81;5083275;28;20040;-80
2022/01/17 06:51:47;;;;;;;16.45;8.80;;;;;;;3.90;100.00;99131.88;5098077;28;20067;-81
2022/01/17 06:54:32;;;;;;;23.80;9.43;;;;;;;3.98;100.00;99118.81;5083066;28;20070;-83
2022/01/17 06:57:16;;;;;;;18.45;11.18;;;;;;;3.87;100.00;99115.50;5068879;28;20036;-80
2022/01/17 07:00:01;;;;;;;23.77;13.05;;;;;;;3.92;100.00;99108.50;5082848;28;20421;-80
2022/01/17 07:02:45;;;;;;;22.17;12.45;;;;;;;3.99;100.00;99089.44;5082555;28;20060;-80
2022/01/17 07:05:30;;;;;;;55.47;23.92;;;;;;;4.01;100.00;99099.81;5068558;28;20044;-81
2022/01/17 07:08:15;;;;;;;27.15;12.77;;;;;;;3.94;100.00;99117.16;5097319;28;20119;-79
2022/01/17 07:11:00;;;;;;;28.63;14.27;;;;;;;4.01;100.00;99136.94;5068547;28;20044;-81
2022/01/17 07:13:44;;;;;;;16.13;10.82;;;;;;;4.07;100.00;99139.47;5082147;28;20379;-80
2022/01/17 07:16:29;;;;;;;24.83;10.10;;;;;;;4.12;100.00;99154.97;5097793;28;20044;-80
2022/01/17 07:19:13;;;;;;;20.83;12.40;;;;;;;4.12;100.00;99149.78;5097333;28;20345;-80
2022/01/17 07:21:57;;;;;;;12.60;7.53;;;;;;;4.13;100.00;99149.78;5082741;28;20040;-80
2022/01/17 07:24:44;;;;;;;19.75;8.70;;;;;;;4.19;100.00;99159.22;5068664;28;20420;-80
2022/01/17 07:27:29;;;;;;;19.60;11.00;;;;;;;4.17;100.00;99141.09;5082665;28;20040;-80
2022/01/17 07:30:13;;;;;;;13.30;6.32;;;;;;;4.16;100.00;99131.63;5067520;28;20055;-80
2022/01/17 07:32:57;;;;;;;61.00;24.48;;;;;;;4.28;100.00;99088.28;5082653;28;20097;-81
2022/01/17 07:35:44;;;;;;;61.05;23.42;;;;;;;4.15;100.00;99067.66;5082422;28;20382;-81
2022/01/17 07:38:28;;;;;;;13.13;5.93;;;;;;;4.24;100.00;99068.47;5068357;28;20068;-80
2022/01/17 07:41:13;;;;;;;23.90;10.27;;;;;;;4.11;100.00;99047.84;5082137;28;20082;-79
2022/01/17 07:44:01;;;;;;;11.30;5.13;;;;;;;4.31;100.00;99073.53;5081032;28;20051;-80
2022/01/17 07:46:54;;;;;;;29.70;10.45;;;;;;;4.30;100.00;99058.88;5080296;28;20123;-80
2022/01/17 07:49:39;;;;;;;;;;;;;;;4.16;100.00;99066.81;5080853;28;20093;-80
2022/01/17 07:52:23;;;;;;;12.07;5.95;;;;;;;3.73;100.00;98979.16;5094995;28;19920;-80
2022/01/17 07:55:08;;;;;;;7.15;3.60;;;;;;;4.15;100.00;99057.31;5066126;28;20047;-80
2022/01/17 07:57:54;;;;;;;7.05;4.40;;;;;;;4.27;100.00;99047.69;5111515;28;20052;-81
2022/01/17 08:00:39;;;;;;;9.90;5.18;;;;;;;4.26;100.00;99041.66;5080080;28;20047;-79
2022/01/17 08:03:23;;;;;;;5.72;3.05;;;;;;;4.27;100.00;99032.13;5079976;28;20040;-80
2022/01/17 08:06:08;;;;;;;6.03;2.90;;;;;;;4.36;100.00;99017.31;5079948;28;20394;-81
2022/01/17 08:08:55;;;;;;;8.18;4.03;;;;;;;4.25;100.00;98995.00;5094931;28;20055;-80
2022/01/17 08:11:39;;;;;;;8.32;3.63;;;;;;;4.23;100.00;98971.69;5108379;28;20043;-80
2022/01/17 08:14:24;;;;;;;9.50;3.55;;;;;;;4.24;100.00;98970.81;5095301;28;20391;-80
2022/01/17 08:17:09;;;;;;;10.38;4.05;;;;;;;4.28;100.00;98962.09;5110345;28;20051;-80
2022/01/17 08:19:53;;;;;;;11.57;4.47;;;;;;;4.19;100.00;98959.63;5082180;28;20051;-79
2022/01/17 08:22:37;;;;;;;4.88;3.03;;;;;;;4.20;100.00;98982.94;5095838;28;20051;-80
2022/01/17 08:25:22;;;;;;;4.97;3.08;;;;;;;4.15;100.00;98976.09;5097097;28;20101;-79
2022/01/17 08:28:07;;;;;;;7.68;3.55;;;;;;;4.12;100.00;98981.31;5081567;28;20321;-80
2022/01/17 08:30:51;;;;;;;10.25;4.57;;;;;;;4.20;100.00;98985.53;5096472;28;20040;-80
2022/01/17 08:33:35;;;;;;;9.07;5.05;;;;;;;4.28;100.00;98982.00;5067530;28;20043;-80
2022/01/17 08:36:20;;;;;;;3.88;2.78;;;;;;;4.34;100.00;98987.94;5081393;28;20036;-82
2022/01/17 08:39:06;;;;;;;17.60;7.50;;;;;;;4.34;100.00;98975.00;5067257;28;20048;-80
2022/01/17 08:41:54;;;;;;;14.50;8.70;;;;;;;4.29;100.00;98962.94;5096311;28;20199;-81
2022/01/17 08:44:39;;;;;;;9.25;5.38;;;;;;;4.22;100.00;98936.25;5081402;28;20040;-81
2022/01/17 08:47:24;;;;;;;4.35;1.92;;;;;;;4.24;100.00;98946.63;5081565;28;20059;-80
2022/01/17 08:50:08;;;;;;;11.45;6.07;;;;;;;4.25;100.00;98956.09;5096352;28;20051;-80
2022/01/17 08:52:53;;;;;;;12.50;7.28;;;;;;;4.44;100.00;98932.50;5081104;28;20052;-80
2022/01/17 08:55:38;;;;;;;40.28;17.92;;;;;;;4.48;100.00;98940.22;5067406;28;20040;-79
2022/01/17 08:58:22;;;;;;;34.72;15.85;;;;;;;4.44;100.00;98968.78;5067462;28;20036;-78
2022/01/17 09:01:08;;;;;;;8.65;1.58;;;;;;;4.50;100.00;98931.56;5096124;28;20055;-78
2022/01/17 09:03:53;;;;;;;1.60;1.15;;;;;;;4.48;100.00;98967.03;5067864;28;20044;-80
2022/01/17 09:06:38;;;;;;;3.22;1.25;;;;;;;4.44;100.00;98967.94;5081207;28;20352;-80
2022/01/17 09:09:22;;;;;;;5.65;1.45;;;;;;;4.57;100.00;98938.38;5096096;28;20036;-80
2022/01/17 09:12:10;;;;;;;2.17;1.17;;;;;;;4.51;100.00;98906.47;5081299;28;20040;-79
2022/01/17 09:14:54;;;;;;;9.15;1.35;;;;;;;4.48;100.00;98891.81;5067366;28;20071;-80
2022/01/17 09:17:39;;;;;;;2.05;1.00;;;;;;;4.60;100.00;98921.91;5067041;28;20043;-79
2022/01/17 09:20:24;;;;;;;3.63;1.67;;;;;;;4.61;100.00;98918.41;5081276;28;20048;-80
2022/01/17 09:23:09;;;;;;;8.48;4.85;;;;;;;4.53;100.00;98915.09;5109819;28;20043;-79
2022/01/17 09:25:53;;;;;;;4.65;2.13;;;;;;;4.36;100.00;98897.19;5096348;28;20051;-80
2022/01/17 09:28:38;;;;;;;3.30;1.48;;;;;;;4.64;100.00;98902.81;5064224;28;20063;-80
2022/01/17 09:31:22;;;;;;;2.70;1.60;;;;;;;4.58;100.00;98893.41;5067044;28;20044;-80
2022/01/17 09:34:07;;;;;;;6.60;4.25;;;;;;;4.67;100.00;98887.22;5080851;28;20040;-80
2022/01/17 09:36:52;;;;;;;8.73;3.75;;;;;;;4.80;100.00;98887.88;5080864;28;20059;-80
2022/01/17 09:39:37;;;;;;;13.90;6.35;;;;;;;4.73;100.00;98870.69;5110015;28;20444;-80
2022/01/17 09:42:22;;;;;;;10.15;5.72;;;;;;;4.85;100.00;98904.22;5096347;28;20066;-81
2022/01/17 09:45:10;;;;;;;8.13;3.05;;;;;;;4.85;100.00;98866.16;5081029;28;20106;-81
2022/01/17 09:47:55;;;;;;;9.57;5.20;;;;;;;4.67;100.00;98859.53;5080665;28;20433;-82
2022/01/17 09:50:56;;;;;;;183.30;61.20;;;;;;;4.76;100.00;98881.03;5081281;28;20086;-80
2022/01/17 09:53:42;;;;;;;5.40;2.55;;;;;;;4.83;100.00;98885.22;5068309;28;20044;-80
2022/01/17 09:56:28;;;;;;;6.10;1.40;;;;;;;4.89;100.00;98880.78;5084902;28;20058;-81
2022/01/17 09:59:13;;;;;;;9.05;2.65;;;;;;;4.84;100.00;98853.19;5070704;28;20078;-79
2022/01/17 10:01:57;;;;;;;4.68;1.10;;;;;;;4.85;100.00;98858.38;5084456;28;20443;-79
2022/01/17 10:04:42;;;;;;;4.28;2.58;;;;;;;4.76;100.00;98868.91;5070586;28;20051;-81
2022/01/17 10:07:56;;;;;;;4.38;2.30;;;;;;;4.96;100.00;98847.81;5084676;28;20117;-81
2022/01/17 10:10:58;;;;;;;2.75;1.83;;;;;;;4.97;100.00;98862.47;5069879;28;20043;-81
2022/01/17 10:13:45;;;;;;;3.97;1.73;;;;;;;4.75;100.00;98853.38;5069742;28;20448;-80
2022/01/17 10:16:31;;;;;;;9.27;1.50;;;;;;;4.86;100.00;98841.91;5098849;28;20044;-81
2022/01/17 10:19:21;;;;;;;2.65;0.90;;;;;;;4.80;100.00;98870.56;5084322;28;20044;-80
2022/01/17 10:22:15;;;;;;;7.45;1.38;;;;;;;4.78;100.00;98872.34;5084001;28;20044;-80
2022/01/17 10:29:02;;;;;;;2.15;0.90;;;;;;;4.94;100.00;98880.72;5084275;28;20044;-81
2022/01/17 10:37:32;;;;;;;3.17;1.08;;;;;;;4.74;100.00;98859.44;5036763;28;20376;-81
2022/01/17 10:40:19;;;;;;;1.55;0.43;;;;;;;4.77;100.00;98856.78;5098557;28;20041;-79
2022/01/17 10:43:05;;;;;;;4.28;0.88;;;;;;;4.81;100.00;98874.88;5069632;28;20074;-81
2022/01/17 10:57:45;;;;;;;1.45;0.68;;;;;;;1.64;100.00;99169.84;5134698;27;20835;-78
2022/01/17 11:00:33;;;;;;;0.80;0.43;;;;;;;1.36;100.00;99177.53;5134279;28;20054;-77
2022/01/17 11:03:30;;;;;;;1.88;1.10;;;;;;;1.18;100.00;99182.66;5134634;28;20035;-79
2022/01/17 11:06:21;;;;;;;2.28;0.95;;;;;;;1.06;100.00;99186.06;5134342;28;20413;-78
2022/01/17 11:09:05;;;;;;;3.75;1.00;;;;;;;1.04;100.00;99192.94;5133854;28;20039;-80
2022/01/17 11:11:50;;;;;;;4.95;2.50;;;;;;;0.86;100.00;99188.56;5134009;28;20055;-78
2022/01/17 11:14:39;;;;;;;4.75;1.50;;;;;;;0.71;100.00;99209.09;5133798;28;20043;-77
2022/01/17 11:17:34;;;;;;;1.98;1.05;;;;;;;0.85;100.00;99215.22;5134150;28;20040;-77
2022/01/17 11:20:25;;;;;;;3.03;1.23;;;;;;;0.74;100.00;99237.47;5133120;28;20045;-78
2022/01/17 11:23:09;;;;;;;8.80;3.50;;;;;;;0.63;100.00;99237.44;5133145;28;20035;-77
2022/01/17 11:25:56;;;;;;;11.80;7.65;;;;;;;0.76;100.00;99229.78;5118789;28;20031;-78
2022/01/17 11:28:41;;;;;;;4.90;1.80;;;;;;;0.72;100.00;99213.44;5132973;28;20390;-79
2022/01/17 11:31:26;;;;;;;6.68;3.90;;;;;;;0.74;100.00;99209.13;5118503;28;20039;-79
2022/01/17 11:34:13;;;;;;;4.85;1.85;;;;;;;0.84;100.00;99221.19;5118786;28;20059;-79
2022/01/17 11:36:59;;;;;;;4.40;1.55;;;;;;;0.87;100.00;99207.47;5118597;28;20089;-80
2022/01/17 11:39:53;;;;;;;7.10;3.78;;;;;;;0.93;100.00;99192.88;5147819;27;20035;-79
2022/01/17 11:42:38;;;;;;;;;;;;;;;0.94;100.00;99216.94;5133496;28;20039;-80
2022/01/17 11:45:22;;;;;;;27.33;17.08;;;;;;;0.98;100.00;99221.28;5133640;28;19920;-80
2022/01/17 11:48:16;;;;;;;10.98;7.38;;;;;;;0.95;100.00;99186.88;5133673;28;20043;-79
2022/01/17 11:51:15;;;;;;;32.05;19.23;;;;;;;1.21;100.00;99216.22;5132565;28;20043;-81
2022/01/17 11:54:09;;;;;;;29.55;17.45;;;;;;;1.16;100.00;99230.78;5118625;28;20467;-80
2022/01/17 11:57:06;;;;;;;;;;;;;;;1.15;100.00;99208.44;5129455;28;20449;-81
2022/01/17 11:59:50;;;;;;;18.02;10.82;;;;;;;1.17;100.00;99215.34;5104324;28;19923;-81
2022/01/17 12:02:38;;;;;;;40.53;24.70;;;;;;;1.15;100.00;99214.47;5119273;28;20043;-80
2022/01/17 12:05:28;;;;;;;28.20;15.45;;;;;;;1.45;100.00;99236.06;5118809;28;20039;-81
2022/01/17 12:08:21;;;;;;;39.22;21.27;;;;;;;1.43;100.00;99236.91;5118589;28;20345;-80
2022/01/17 12:11:08;;;;;;;41.35;18.40;;;;;;;1.60;100.00;99240.41;5116584;28;20057;-80
2022/01/17 12:13:53;;;;;;;14.43;7.47;;;;;;;1.48;100.00;99245.53;5117228;28;20445;-79
2022/01/17 12:16:37;;;;;;;29.92;14.90;;;;;;;1.65;100.00;99261.91;5116516;28;20039;-79
2022/01/17 12:19:22;;;;;;;12.77;7.47;;;;;;;1.71;100.00;99282.56;5117294;28;20036;-80
2022/01/17 12:22:06;;;;;;;8.20;3.72;;;;;;;1.67;100.00;99282.59;5116491;28;20043;-80
2022/01/17 12:24:51;;;;;;;8.90;3.63;;;;;;;1.58;100.00;99286.84;5117885;28;20429;-79
2022/01/17 12:27:35;;;;;;;7.65;2.70;;;;;;;1.51;100.00;99297.16;5117628;28;20044;-80
2022/01/17 12:30:20;;;;;;;5.32;2.28;;;;;;;1.44;100.00;99300.59;5116966;28;20458;-79
2022/01/17 12:33:11;;;;;;;6.18;2.20;;;;;;;1.50;100.00;99304.03;5116917;28;20447;-80
2022/01/17 12:35:57;;;;;;;4.05;1.20;;;;;;;1.69;100.00;99304.97;5116078;28;20040;-79
2022/01/17 12:38:43;;;;;;;3.63;1.52;;;;;;;1.63;100.00;99312.69;5115980;28;20036;-79
2022/01/17 12:41:35;;;;;;;5.20;1.60;;;;;;;1.82;100.00;99317.06;5115825;28;20057;-78
2022/01/17 12:44:22;;;;;;;5.32;2.35;;;;;;;1.75;100.00;99329.94;5117917;28;20118;-80
2022/01/17 12:47:07;;;;;;;3.28;1.50;;;;;;;1.78;100.00;99333.38;5117472;28;20395;-79
2022/01/17 12:49:51;;;;;;;5.43;1.60;;;;;;;1.84;100.00;99343.72;5117678;28;20066;-78
2022/01/17 12:52:35;;;;;;;6.07;2.08;;;;;;;1.76;100.00;99344.59;5118749;28;20457;-78
2022/01/17 12:55:20;;;;;;;7.35;1.55;;;;;;;1.82;100.00;99342.88;5117925;28;20039;-78
2022/01/17 12:58:13;;;;;;;8.65;1.60;;;;;;;1.88;100.00;99344.59;5118140;28;20047;-79
2022/01/17 13:01:01;;;;;;;4.00;1.80;;;;;;;1.88;100.00;99313.59;5118052;28;20039;-78
2022/01/17 13:03:46;;;;;;;10.65;4.65;;;;;;;1.99;100.00;99318.81;5117464;28;20051;-79
2022/01/17 13:06:31;;;;;;;10.93;4.47;;;;;;;2.03;100.00;99329.13;5118526;28;20039;-81
2022/01/17 13:09:21;;;;;;;63.38;35.05;;;;;;;2.12;100.00;99337.78;5117032;28;20036;-80
2022/01/17 13:12:07;;;;;;;32.80;14.75;;;;;;;2.05;100.00;99363.59;5117432;28;20047;-80
2022/01/17 13:14:58;;;;;;;66.15;30.42;;;;;;;2.09;100.00;99382.56;5117170;28;20055;-80
2022/01/17 13:17:43;;;;;;;120.32;56.63;;;;;;;2.20;100.00;99387.72;5117615;28;20050;-80
2022/01/17 13:20:28;;;;;;;150.35;58.40;;;;;;;2.19;100.00;99384.28;5117430;28;20044;-82
2022/01/17 13:23:17;;;;;;;71.00;30.52;;;;;;;2.12;100.00;99386.88;5146622;27;20409;-81
2022/01/17 13:26:02;;;;;;;105.88;43.30;;;;;;;2.20;100.00;99379.97;5116982;28;20035;-81
2022/01/17 13:28:51;;;;;;;74.40;34.92;;;;;;;2.25;100.00;99393.78;5102498;28;20107;-81